Time;durP1;ratioP1;P1;durP2;ratioP2;P2;SDS_P1;SDS_P2;PMS_P1;PMS_P2;Temp;Humidity;BMP_temperature;BMP_pressure;BME280_temperature;BME280_humidity;BME280_pressure;Samples;Min_cycle;Max_cycle;Signal;HPM_P1;HPM_P2
2021/05/02 00:01:40;;;;;;;7.22;6.50;;;;;;;15.84;80.27;100089.08;1690035;83;21207;-43
2021/05/02 00:04:07;;;;;;;7.30;6.47;;;;;;;15.83;80.28;100088.23;1680508;84;21156;-43
2021/05/02 00:06:35;;;;;;;7.50;6.55;;;;;;;15.82;80.28;100079.80;1695577;83;21170;-43
2021/05/02 00:09:04;;;;;;;7.33;6.62;;;;;;;15.81;80.29;100080.80;1702567;82;21180;-44
2021/05/02 00:11:33;;;;;;;6.72;5.60;;;;;;;15.81;80.29;100079.95;1686079;83;21183;-44
2021/05/02 00:14:02;;;;;;;6.47;5.35;;;;;;;15.79;80.25;100086.78;1692916;83;21157;-45
2021/05/02 00:16:30;;;;;;;6.28;5.67;;;;;;;15.77;80.30;100070.81;1725096;81;21224;-45
2021/05/02 00:19:00;;;;;;;8.13;6.67;;;;;;;15.76;80.33;100071.78;1681922;83;21431;-44
2021/05/02 00:21:28;;;;;;;10.25;5.65;;;;;;;15.76;80.36;100064.21;1693131;83;21185;-45
2021/05/02 00:23:55;;;;;;;7.15;4.75;;;;;;;15.74;80.36;100054.08;1679671;83;21178;-47
2021/05/02 00:26:23;;;;;;;5.80;5.20;;;;;;;15.73;80.35;100050.55;1687439;83;21180;-46
2021/05/02 00:28:52;;;;;;;6.15;4.85;;;;;;;15.72;80.33;100049.32;1680754;83;21198;-45
2021/05/02 00:31:19;;;;;;;6.90;5.17;;;;;;;15.70;80.35;100042.75;1673424;84;21635;-44
2021/05/02 00:33:47;;;;;;;5.72;4.15;;;;;;;15.71;80.29;100039.07;1678649;83;21198;-44
2021/05/02 00:36:15;;;;;;;8.13;4.83;;;;;;;15.69;80.28;100038.81;1689818;83;21136;-44
2021/05/02 00:38:43;;;;;;;5.08;4.25;;;;;;;15.68;80.30;100042.00;1683986;83;21176;-45
2021/05/02 00:41:27;;;;;;;6.80;4.75;;;;;;;15.66;80.24;100041.27;1676310;84;21163;-45
2021/05/02 00:44:07;;;;;;;5.17;4.58;;;;;;;15.65;80.25;100036.89;1679463;84;21573;-46
2021/05/02 00:46:40;;;;;;;;;;;;;;;15.64;80.27;100035.67;1683586;83;21570;-47
2021/05/02 00:49:28;;;;;;;5.05;4.12;;;;;;;15.62;80.22;100025.55;1723939;81;20729;-47
2021/05/02 00:51:59;;;;;;;6.87;4.17;;;;;;;15.59;80.29;100014.56;1682662;84;21181;-45
2021/05/02 00:54:38;;;;;;;5.17;4.33;;;;;;;15.57;80.39;100016.53;1680042;84;21568;-45
2021/05/02 00:57:50;;;;;;;4.87;3.70;;;;;;;15.58;80.47;100009.69;1783979;78;25230;-43
2021/05/02 01:00:18;;;;;;;3.72;3.30;;;;;;;15.54;80.52;100010.09;1640471;84;21173;-45
2021/05/02 01:02:49;;;;;;;5.17;3.92;;;;;;;15.53;80.56;100009.23;1663293;84;21192;-46
2021/05/02 01:05:16;;;;;;;5.25;3.98;;;;;;;15.52;80.62;100006.67;1672157;84;21194;-44
2021/05/02 01:07:44;;;;;;;4.30;3.77;;;;;;;15.50;80.68;100004.14;1670852;84;21296;-45
2021/05/02 01:10:17;;;;;;;4.85;3.47;;;;;;;15.48;80.67;100003.91;1661619;84;21213;-44
2021/05/02 01:12:49;;;;;;;4.60;4.00;;;;;;;15.48;80.71;100009.29;1659880;84;21986;-45
2021/05/02 01:15:45;;;;;;;6.72;3.70;;;;;;;15.49;80.70;99995.70;1787423;78;23420;-45
2021/05/02 01:18:17;;;;;;;4.97;3.52;;;;;;;15.44;80.70;100003.80;1772170;80;21142;-45
2021/05/02 01:20:45;;;;;;;4.10;3.33;;;;;;;15.46;80.69;100004.53;1745969;79;21606;-45
2021/05/02 01:23:24;;;;;;;4.08;3.67;;;;;;;15.44;80.72;100002.46;1765833;80;21177;-45
2021/05/02 01:25:53;;;;;;;3.87;3.45;;;;;;;15.43;80.73;99996.74;1782594;79;21105;-48
2021/05/02 01:28:21;;;;;;;4.03;2.80;;;;;;;15.42;80.74;99992.34;1780258;80;21197;-46
2021/05/02 01:30:49;;;;;;;4.17;2.87;;;;;;;15.43;80.75;99994.05;1770118;80;21577;-45
2021/05/02 01:33:18;;;;;;;3.92;3.52;;;;;;;15.42;80.64;99995.90;1783400;79;21165;-45
2021/05/02 01:35:46;;;;;;;5.00;3.70;;;;;;;15.44;80.59;100001.12;1778319;79;21153;-46
2021/05/02 01:38:14;;;;;;;3.70;2.95;;;;;;;15.41;80.58;99996.86;1758243;80;21157;-47
2021/05/02 01:40:43;;;;;;;2.83;2.42;;;;;;;15.43;80.59;99995.40;1746320;80;21162;-44
2021/05/02 01:43:10;;;;;;;4.80;2.77;;;;;;;15.42;80.61;99986.50;1768323;79;22147;-45
2021/05/02 01:45:38;;;;;;;5.50;2.92;;;;;;;15.43;80.61;99990.03;1764372;79;21227;-44
2021/05/02 01:48:07;;;;;;;5.28;3.02;;;;;;;15.42;80.57;99990.52;1767900;80;21142;-46
2021/05/02 01:50:52;;;;;;;4.70;3.40;;;;;;;15.42;80.53;99993.67;1741580;81;21171;-45
2021/05/02 01:53:20;;;;;;;4.05;2.87;;;;;;;15.42;80.51;99993.21;1720976;82;21209;-45
2021/05/02 01:55:48;;;;;;;3.45;2.58;;;;;;;15.40;80.50;99987.11;1692948;82;21205;-47
2021/05/02 01:58:16;;;;;;;4.80;3.27;;;;;;;15.39;80.48;99994.80;1694514;82;21221;-46
2021/05/02 02:00:50;;;;;;;3.37;2.87;;;;;;;15.40;80.47;99988.95;1738559;81;21185;-48
2021/05/02 02:03:18;;;;;;;3.85;2.87;;;;;;;15.40;80.44;99976.87;1705300;82;21181;-49
2021/05/02 02:05:46;;;;;;;4.53;3.05;;;;;;;15.40;80.39;99975.03;1708213;82;21732;-48
2021/05/02 02:08:14;;;;;;;3.65;2.25;;;;;;;15.39;80.34;99968.43;1713749;81;21746;-47
2021/05/02 02:10:44;;;;;;;4.20;2.80;;;;;;;15.38;80.31;99966.74;1703387;81;21220;-47
2021/05/02 02:13:14;;;;;;;3.25;2.27;;;;;;;15.35;80.28;99968.70;1717800;81;21616;-48
2021/05/02 02:15:41;;;;;;;5.40;2.67;;;;;;;15.35;80.25;99966.52;1706459;82;21144;-44
2021/05/02 02:18:10;;;;;;;3.80;2.60;;;;;;;15.32;80.27;99960.92;1703244;82;21133;-47
2021/05/02 02:20:45;;;;;;;4.03;2.60;;;;;;;15.31;80.31;99959.69;1734917;81;21168;-47
2021/05/02 02:23:18;;;;;;;3.45;3.00;;;;;;;15.29;80.34;99960.31;1730231;81;21176;-47
2021/05/02 02:25:53;;;;;;;5.35;2.67;;;;;;;15.34;80.37;99961.61;1764758;79;23083;-48
2021/05/02 02:28:21;;;;;;;3.70;3.00;;;;;;;15.28;80.36;99953.25;1739195;80;21138;-44
2021/05/02 02:30:53;;;;;;;4.42;2.55;;;;;;;15.26;80.38;99962.77;1708276;82;21138;-45
2021/05/02 02:33:20;;;;;;;4.30;2.60;;;;;;;15.24;80.45;99964.73;1738928;80;21121;-46
2021/05/02 02:35:52;;;;;;;3.62;2.55;;;;;;;15.22;80.45;99965.38;1687481;82;21137;-45
2021/05/02 02:38:22;;;;;;;4.00;2.62;;;;;;;15.22;80.53;99963.16;1743055;80;21149;-47
2021/05/02 02:40:54;;;;;;;4.30;3.15;;;;;;;15.20;80.63;99960.63;1742005;80;21138;-46
2021/05/02 02:43:24;;;;;;;4.33;2.83;;;;;;;15.21;80.67;99960.97;1744447;82;21271;-49
2021/05/02 02:45:55;;;;;;;3.98;2.85;;;;;;;15.21;80.69;99961.47;1737053;80;21138;-44
2021/05/02 02:48:25;;;;;;;4.40;3.05;;;;;;;15.20;80.72;99957.09;1735344;81;21169;-46
2021/05/02 02:50:59;;;;;;;;;;;;;;;15.20;80.69;99955.75;1739861;80;21126;-46
2021/05/02 02:53:28;;;;;;;3.83;2.65;;;;;;;15.18;80.59;99939.76;1736745;80;20439;-44
2021/05/02 02:56:06;;;;;;;3.35;2.33;;;;;;;15.15;80.48;99944.91;1740253;80;21129;-47
2021/05/02 02:58:37;;;;;;;3.80;2.83;;;;;;;15.12;80.43;99945.67;1732378;81;21645;-45
2021/05/02 03:01:05;;;;;;;4.10;2.42;;;;;;;15.09;80.46;99951.28;1616850;87;21623;-43
2021/05/02 03:03:34;;;;;;;4.03;2.42;;;;;;;15.08;80.66;99960.33;1617092;87;21191;-47
2021/05/02 03:06:02;;;;;;;4.83;3.02;;;;;;;15.06;80.83;99958.27;1618289;87;21164;-45
2021/05/02 03:08:30;;;;;;;3.87;2.58;;;;;;;15.07;80.94;99959.48;1619168;88;21151;-44
2021/05/02 03:10:58;;;;;;;3.95;2.95;;;;;;;15.07;81.11;99956.80;1603722;87;21257;-45
2021/05/02 03:13:26;;;;;;;4.22;3.20;;;;;;;15.08;81.25;99955.80;1606538;87;21289;-44
2021/05/02 03:15:54;;;;;;;3.37;2.33;;;;;;;15.09;81.37;99964.23;1610307;88;21234;-44
2021/05/02 03:18:48;;;;;;;4.20;2.25;;;;;;;15.11;81.51;99962.75;1612139;87;21249;-45
2021/05/02 03:21:19;;;;;;;3.50;2.80;;;;;;;15.11;81.64;99958.72;1615355;88;21164;-43
2021/05/02 03:23:48;;;;;;;4.58;2.50;;;;;;;15.12;81.81;99965.31;1623863;87;21207;-43
2021/05/02 03:26:16;;;;;;;3.95;2.25;;;;;;;15.14;81.94;99967.84;1583161;88;21188;-41
2021/05/02 03:28:49;;;;;;;3.83;2.70;;;;;;;15.18;82.01;99959.05;1604019;88;21289;-47
2021/05/02 03:31:16;;;;;;;3.33;2.47;;;;;;;15.21;82.09;99960.97;1606682;88;21176;-43
2021/05/02 03:33:47;;;;;;;3.92;2.58;;;;;;;15.24;82.10;99968.76;1603500;88;21183;-44
2021/05/02 03:36:24;;;;;;;5.33;2.90;;;;;;;15.26;82.08;99970.83;1601652;88;21317;-45
2021/05/02 03:38:58;;;;;;;3.75;2.55;;;;;;;15.33;82.05;99967.13;1797000;78;22569;-42
2021/05/02 03:41:27;;;;;;;4.05;2.40;;;;;;;15.30;82.04;99960.19;1792302;78;21172;-44
2021/05/02 03:43:56;;;;;;;5.17;2.70;;;;;;;15.31;82.05;99949.80;1796359;78;21125;-46
2021/05/02 03:49:05;;;;;;;4.75;3.22;;;;;;;15.43;82.14;99956.45;1783991;79;28208;-44
2021/05/02 03:51:36;;;;;;;6.58;2.67;;;;;;;15.43;82.14;99957.79;1770404;80;21954;-46
2021/05/02 03:54:05;;;;;;;2.62;2.33;;;;;;;15.52;82.00;99961.00;1773522;80;21581;-46
2021/05/02 03:56:36;;;;;;;5.45;2.70;;;;;;;15.55;81.79;99959.41;1778855;79;21148;-45
2021/05/02 03:59:14;;;;;;;3.40;2.20;;;;;;;15.57;81.67;99962.32;1754738;80;21161;-48
2021/05/02 04:01:58;;;;;;;5.33;2.50;;;;;;;15.59;81.73;99956.80;1754348;80;21561;-49
2021/05/02 04:04:34;;;;;;;3.40;2.50;;;;;;;15.62;81.76;99956.52;1711807;82;21126;-46
2021/05/02 04:07:04;;;;;;;4.80;3.00;;;;;;;15.64;81.64;99966.64;1685442;83;21114;-48
2021/05/02 04:09:35;;;;;;;4.17;2.72;;;;;;;15.68;81.54;99965.91;1690258;83;21577;-49
2021/05/02 04:12:04;;;;;;;3.22;2.33;;;;;;;15.70;81.53;99962.13;1687715;83;21162;-47
2021/05/02 04:14:32;;;;;;;3.77;2.87;;;;;;;15.72;81.44;99960.16;1691436;83;21625;-43
2021/05/02 04:17:05;;;;;;;4.10;3.10;;;;;;;15.74;81.45;99951.94;1678796;83;21145;-47
2021/05/02 04:19:40;;;;;;;4.03;2.58;;;;;;;15.83;81.40;99954.33;1799946;78;22625;-43
2021/05/02 04:22:08;;;;;;;2.17;1.92;;;;;;;15.81;81.27;99949.08;1781538;79;21129;-45
2021/05/02 04:24:36;;;;;;;4.08;2.75;;;;;;;15.84;81.27;99941.23;1722218;81;21790;-46
2021/05/02 04:27:05;;;;;;;2.52;2.27;;;;;;;15.87;81.33;99933.73;1725369;81;21162;-44
2021/05/02 04:29:34;;;;;;;3.60;2.42;;;;;;;15.91;81.28;99935.17;1740497;81;21151;-45
2021/05/02 04:32:02;;;;;;;4.22;2.72;;;;;;;15.93;81.19;99930.52;1718001;82;21188;-47
2021/05/02 04:34:30;;;;;;;4.47;2.98;;;;;;;15.96;81.11;99937.45;1713518;82;21137;-45
2021/05/02 04:36:57;;;;;;;5.08;3.00;;;;;;;15.96;80.97;99940.14;1717891;81;21315;-43
2021/05/02 04:39:26;;;;;;;6.30;2.25;;;;;;;15.97;80.76;99937.80;1751147;81;21145;-42
2021/05/02 04:41:54;;;;;;;3.55;2.45;;;;;;;15.99;80.66;99931.80;1723490;81;21464;-45
2021/05/02 04:44:22;;;;;;;5.37;2.80;;;;;;;16.00;80.58;99930.32;1734165;81;21158;-45
2021/05/02 04:46:50;;;;;;;4.25;2.92;;;;;;;16.01;80.55;99923.09;1735459;81;21150;-47
2021/05/02 04:49:18;;;;;;;3.77;2.90;;;;;;;16.03;80.52;99921.12;1715539;81;21175;-45
2021/05/02 04:51:45;;;;;;;4.42;2.75;;;;;;;16.05;80.46;99931.73;1707251;81;21583;-47
2021/05/02 04:54:13;;;;;;;3.95;2.80;;;;;;;16.07;80.36;99933.79;1704801;82;21708;-46
2021/05/02 04:56:41;;;;;;;6.37;2.47;;;;;;;16.09;80.30;99935.35;1719507;81;21188;-45
2021/05/02 04:59:08;;;;;;;3.17;2.75;;;;;;;16.13;80.40;99939.98;1716499;81;21174;-49
2021/05/02 05:01:37;;;;;;;4.78;3.20;;;;;;;16.14;80.40;99935.78;1691337;83;21398;-48
2021/05/02 05:04:08;;;;;;;3.12;2.60;;;;;;;16.18;80.50;99942.60;1705916;82;21200;-46
2021/05/02 05:06:36;;;;;;;3.98;3.15;;;;;;;16.22;80.60;99939.13;1688281;83;21165;-47
2021/05/02 05:09:06;;;;;;;7.45;3.42;;;;;;;16.25;80.58;99935.31;1689397;83;21679;-43
2021/05/02 05:11:34;;;;;;;3.77;2.77;;;;;;;16.27;80.52;99931.48;1692885;83;21170;-45
2021/05/02 05:14:03;;;;;;;3.47;2.70;;;;;;;16.31;80.42;99936.11;1686918;83;21134;-47
2021/05/02 05:16:31;;;;;;;4.70;3.22;;;;;;;16.33;80.39;99930.95;1694750;83;21157;-47
2021/05/02 05:19:00;;;;;;;5.22;2.65;;;;;;;16.37;80.43;99938.23;1677601;83;21627;-47
2021/05/02 05:21:28;;;;;;;4.50;3.37;;;;;;;16.38;80.50;99935.41;1707136;82;21154;-46
2021/05/02 05:23:55;;;;;;;3.87;2.58;;;;;;;16.41;80.48;99933.78;1676242;83;21200;-50
2021/05/02 05:26:23;;;;;;;4.87;3.10;;;;;;;16.44;80.25;99941.56;1738368;80;21148;-48
2021/05/02 05:28:50;;;;;;;3.83;2.92;;;;;;;16.46;80.32;99934.70;1740926;81;21540;-45
2021/05/02 05:31:18;;;;;;;4.78;2.92;;;;;;;16.50;80.42;99928.53;1749002;80;21170;-48
2021/05/02 05:33:46;;;;;;;3.35;2.37;;;;;;;16.53;80.50;99930.47;1743172;80;21179;-45
2021/05/02 05:36:15;;;;;;;3.62;2.92;;;;;;;16.58;80.41;99928.67;1738353;80;21145;-48
2021/05/02 05:38:43;;;;;;;4.58;3.55;;;;;;;16.60;80.15;99924.84;1730454;80;21579;-46
2021/05/02 05:41:11;;;;;;;5.75;3.15;;;;;;;16.63;79.87;99920.55;1736367;80;21137;-46
2021/05/02 05:43:38;;;;;;;4.05;3.10;;;;;;;16.66;79.43;99923.45;1736477;80;21167;-47
2021/05/02 05:46:07;;;;;;;4.58;3.40;;;;;;;16.70;79.11;99917.28;1732724;80;21178;-47
2021/05/02 05:48:35;;;;;;;4.35;3.60;;;;;;;16.71;78.65;99917.15;1738268;81;21457;-45
2021/05/02 05:51:05;;;;;;;6.08;4.05;;;;;;;16.75;78.43;99908.28;1736849;80;21567;-45
2021/05/02 05:53:37;;;;;;;3.87;3.12;;;;;;;16.77;78.30;99906.30;1735980;80;21167;-46
2021/05/02 05:56:05;;;;;;;4.55;3.20;;;;;;;16.80;78.28;99909.57;1741748;80;21542;-47
2021/05/02 05:58:34;;;;;;;4.30;3.45;;;;;;;16.85;78.15;99906.45;1739174;80;21190;-48
2021/05/02 06:01:02;;;;;;;4.40;3.12;;;;;;;16.87;77.70;99904.47;1741956;80;21626;-48
2021/05/02 06:03:30;;;;;;;5.55;3.12;;;;;;;16.91;77.68;99905.89;1739595;80;21155;-47
2021/05/02 06:05:58;;;;;;;3.55;3.15;;;;;;;16.98;77.65;99917.77;1742719;80;21190;-47
2021/05/02 06:08:26;;;;;;;9.68;4.75;;;;;;;17.03;77.69;99908.78;1740828;80;21115;-48
2021/05/02 06:10:53;;;;;;;7.20;3.58;;;;;;;17.11;78.17;99908.53;1735041;80;22143;-47
2021/05/02 06:13:22;;;;;;;5.10;4.25;;;;;;;17.16;77.76;99902.20;1733175;81;21125;-49
2021/05/02 06:15:50;;;;;;;4.45;3.60;;;;;;;17.20;77.29;99900.93;1731075;80;21158;-45
2021/05/02 06:18:18;;;;;;;7.70;4.25;;;;;;;17.23;77.08;99892.05;1733873;81;21129;-46
2021/05/02 06:20:46;;;;;;;8.90;4.35;;;;;;;17.26;76.83;99885.52;1720664;81;21613;-46
2021/05/02 06:23:13;;;;;;;5.20;4.58;;;;;;;17.28;76.51;99888.91;1717780;81;21548;-46
2021/05/02 06:25:41;;;;;;;5.97;4.35;;;;;;;17.29;75.94;99889.28;1720447;81;21435;-48
2021/05/02 06:28:08;;;;;;;6.35;3.90;;;;;;;17.29;75.55;99896.86;1712135;81;21292;-47
2021/05/02 06:30:36;;;;;;;8.48;4.53;;;;;;;17.28;75.17;99898.34;1720178;81;21755;-46
2021/05/02 06:33:06;;;;;;;5.97;3.98;;;;;;;17.28;75.32;99901.04;1716748;81;21181;-45
2021/05/02 06:35:33;;;;;;;7.45;4.83;;;;;;;17.28;75.43;99909.97;1720265;82;21172;-46
2021/05/02 06:38:03;;;;;;;8.40;4.50;;;;;;;17.28;75.02;99905.08;1719808;81;21156;-46
2021/05/02 06:40:32;;;;;;;7.12;4.83;;;;;;;17.23;74.88;99898.78;1685376;82;21165;-46
2021/05/02 06:43:06;;;;;;;7.95;5.17;;;;;;;17.23;74.74;99911.41;1684227;83;21557;-46
2021/05/02 06:45:34;;;;;;;7.67;5.12;;;;;;;17.22;74.78;99919.99;1667599;84;21150;-45
2021/05/02 06:48:04;;;;;;;6.20;4.53;;;;;;;17.22;74.79;99932.12;1725318;81;21567;-46
2021/05/02 06:50:32;;;;;;;6.75;4.62;;;;;;;17.21;74.83;99937.16;1716842;81;21141;-47
2021/05/02 06:53:00;;;;;;;8.50;4.83;;;;;;;17.22;74.87;99939.36;1718018;81;21149;-46
2021/05/02 06:55:27;;;;;;;12.80;4.65;;;;;;;17.21;74.88;99941.20;1713678;81;21168;-47
2021/05/02 06:57:59;;;;;;;11.30;5.75;;;;;;;17.22;75.09;99936.66;1724325;81;21145;-49
2021/05/02 07:00:27;;;;;;;6.28;4.78;;;;;;;17.22;75.18;99937.50;1715551;81;21574;-47
2021/05/02 07:02:55;;;;;;;6.72;4.53;;;;;;;17.25;75.17;99927.78;1721527;81;21172;-50
2021/05/02 07:05:23;;;;;;;6.03;5.03;;;;;;;17.27;75.32;99928.48;1692140;83;21217;-50
2021/05/02 07:07:53;;;;;;;7.83;5.03;;;;;;;17.31;75.05;99924.98;1722982;81;21177;-45
2021/05/02 07:10:21;;;;;;;7.70;4.65;;;;;;;17.33;74.80;99925.70;1724197;81;21652;-47
2021/05/02 07:12:49;;;;;;;7.20;4.70;;;;;;;17.36;74.74;99928.12;1718988;81;21173;-48
2021/05/02 07:15:18;;;;;;;9.73;5.53;;;;;;;17.38;74.59;99925.27;1722121;81;21656;-44
2021/05/02 07:17:47;;;;;;;13.40;6.05;;;;;;;17.41;74.65;99924.48;1726588;81;21164;-47
2021/05/02 07:20:16;;;;;;;10.85;6.35;;;;;;;17.43;74.56;99917.59;1734345;81;21206;-51
2021/05/02 07:22:51;;;;;;;7.60;4.97;;;;;;;17.45;74.51;99902.97;1742393;80;21157;-46
2021/05/02 07:25:13;;;;;;;5.45;4.70;;;;;;;17.48;74.46;99904.52;1748764;80;21159;-48
2021/05/02 07:27:41;;;;;;;8.08;5.75;;;;;;;17.49;74.47;99925.94;1739587;80;21592;-45
2021/05/02 07:30:09;;;;;;;8.95;5.97;;;;;;;17.52;74.28;99924.29;1748684;80;21167;-45
2021/05/02 07:32:37;;;;;;;8.15;5.85;;;;;;;17.55;74.18;99933.93;1734215;80;21621;-46
2021/05/02 07:35:06;;;;;;;8.33;6.25;;;;;;;17.56;73.78;99928.03;1725824;81;21602;-47
2021/05/02 07:37:34;;;;;;;8.15;5.37;;;;;;;17.56;73.63;99933.42;1741630;80;21167;-47
2021/05/02 07:40:01;;;;;;;8.73;6.15;;;;;;;17.57;73.67;99929.25;1738760;80;21119;-47
2021/05/02 07:42:29;;;;;;;7.67;6.03;;;;;;;17.58;73.67;99928.73;1735883;80;21125;-45
2021/05/02 07:44:57;;;;;;;7.45;5.55;;;;;;;17.59;73.79;99930.42;1751907;80;21161;-46
2021/05/02 07:47:25;;;;;;;7.30;6.03;;;;;;;17.59;73.56;99930.42;1744438;80;21163;-45
2021/05/02 07:49:53;;;;;;;9.00;6.47;;;;;;;17.56;73.53;99934.77;1742937;81;21159;-46
2021/05/02 07:52:21;;;;;;;10.15;6.60;;;;;;;17.55;73.49;99929.89;1738197;81;21171;-46
2021/05/02 07:54:48;;;;;;;10.75;6.85;;;;;;;17.53;73.53;99930.02;1744088;80;21191;-47
2021/05/02 07:57:16;;;;;;;11.40;6.12;;;;;;;17.53;73.67;99930.02;1745046;80;21142;-47
2021/05/02 07:59:44;;;;;;;9.78;6.90;;;;;;;17.55;73.69;99920.45;1742633;81;21163;-46
2021/05/02 08:02:11;;;;;;;13.62;10.20;;;;;;;17.54;73.84;99913.38;1741480;80;21174;-47
2021/05/02 08:04:41;;;;;;;12.00;8.50;;;;;;;17.53;73.71;99913.84;1732059;80;21579;-47
2021/05/02 08:07:08;;;;;;;12.50;7.60;;;;;;;17.53;73.69;99910.31;1736719;81;21536;-46
2021/05/02 08:09:36;;;;;;;11.95;7.35;;;;;;;17.51;73.77;99910.48;1735381;81;22070;-47
2021/05/02 08:12:05;;;;;;;11.95;7.62;;;;;;;17.54;73.90;99907.98;1739809;80;21130;-47
2021/05/02 08:14:33;;;;;;;11.12;7.72;;;;;;;17.55;73.81;99902.09;1749969;80;21533;-50
2021/05/02 08:17:02;;;;;;;9.43;7.55;;;;;;;17.56;73.66;99897.88;1743519;80;21146;-47
2021/05/02 08:19:29;;;;;;;11.93;8.10;;;;;;;17.56;73.57;99892.48;1731588;80;21339;-47
2021/05/02 08:22:02;;;;;;;17.62;11.38;;;;;;;17.57;73.41;99898.75;1740110;80;21585;-48
2021/05/02 08:24:30;;;;;;;13.62;8.35;;;;;;;17.56;73.22;99899.23;1749822;80;21171;-52
2021/05/02 08:26:58;;;;;;;10.10;7.83;;;;;;;17.56;73.14;99901.08;1747665;80;21150;-52
2021/05/02 08:29:26;;;;;;;12.03;8.00;;;;;;;17.57;73.13;99898.25;1742152;80;21567;-49
2021/05/02 08:31:53;;;;;;;11.33;7.72;;;;;;;17.56;73.13;99891.14;1750303;80;21572;-48
2021/05/02 08:34:22;;;;;;;10.98;7.87;;;;;;;17.58;73.13;99889.66;1748032;80;21174;-50
2021/05/02 08:36:51;;;;;;;10.58;8.15;;;;;;;17.58;73.12;99878.37;1748487;80;21773;-51
2021/05/02 08:39:19;;;;;;;12.60;7.85;;;;;;;17.59;73.13;99867.08;1747216;80;21607;-50
2021/05/02 08:41:47;;;;;;;10.72;7.85;;;;;;;17.58;72.95;99865.40;1751898;80;21127;-51
2021/05/02 08:44:17;;;;;;;11.12;8.55;;;;;;;17.58;72.81;99860.84;1747665;80;21744;-51
2021/05/02 08:46:45;;;;;;;9.35;8.08;;;;;;;17.57;72.74;99859.67;1722673;81;21807;-51
2021/05/02 08:49:12;;;;;;;10.70;8.33;;;;;;;17.59;72.85;99861.69;1748860;80;21155;-47
2021/05/02 08:51:40;;;;;;;14.78;8.83;;;;;;;17.58;73.04;99846.02;1751048;80;21162;-46
2021/05/02 08:54:08;;;;;;;11.48;9.48;;;;;;;17.59;73.33;99843.70;1747951;80;21170;-46
2021/05/02 08:56:36;;;;;;;9.13;8.18;;;;;;;17.60;73.42;99837.80;1748697;80;21143;-45
2021/05/02 08:59:03;;;;;;;9.38;7.87;;;;;;;17.59;73.64;99836.95;1745467;80;21204;-47
2021/05/02 09:01:31;;;;;;;13.03;8.90;;;;;;;17.59;74.13;99835.61;1743276;80;21166;-49
2021/05/02 09:04:06;;;;;;;15.78;8.80;;;;;;;17.58;74.48;99829.85;1740296;80;21141;-54
2021/05/02 09:06:36;;;;;;;11.45;8.68;;;;;;;17.58;74.59;99826.31;1741443;80;21187;-49
2021/05/02 09:09:08;;;;;;;10.00;7.65;;;;;;;17.57;74.46;99832.21;1719134;81;21132;-47
2021/05/02 09:11:41;;;;;;;8.90;7.85;;;;;;;17.58;74.56;99833.05;1738109;80;21158;-48
2021/05/02 09:14:24;;;;;;;10.43;8.68;;;;;;;17.58;74.40;99829.01;1745557;80;21151;-48
2021/05/02 09:17:01;;;;;;;13.93;9.25;;;;;;;17.58;74.43;99827.66;1739319;80;21162;-49
2021/05/02 09:22:25;;;;;;;16.05;11.18;;;;;;;17.64;74.68;99831.09;1790622;78;38660;-47
2021/05/02 09:25:02;;;;;;;12.58;8.35;;;;;;;17.63;74.57;99826.71;1778880;79;21157;-47
2021/05/02 09:27:30;;;;;;;11.18;7.85;;;;;;;17.68;74.32;99819.02;1763224;80;21137;-51
2021/05/02 09:30:19;;;;;;;10.88;8.03;;;;;;;17.69;74.36;99816.69;1779345;79;21189;-53
2021/05/02 09:32:49;;;;;;;13.90;8.80;;;;;;;17.70;74.48;99814.33;1779270;79;21145;-49
2021/05/02 09:35:29;;;;;;;10.43;7.87;;;;;;;17.71;74.59;99813.31;1775227;80;21416;-53
2021/05/02 09:38:16;;;;;;;10.68;7.58;;;;;;;17.72;74.72;99815.03;1730420;81;21121;-51
2021/05/02 09:40:50;;;;;;;10.20;8.85;;;;;;;17.74;74.78;99815.73;1738201;81;21187;-48
2021/05/02 09:43:37;;;;;;;13.53;9.13;;;;;;;17.77;74.69;99816.77;1710541;82;21163;-45
2021/05/02 09:49:11;;;;;;;10.72;8.50;;;;;;;17.79;74.72;99823.34;1713031;82;21157;-48
2021/05/02 09:51:53;;;;;;;11.43;8.78;;;;;;;17.80;74.62;99829.97;1729789;81;21199;-46
2021/05/02 09:54:22;;;;;;;11.90;8.70;;;;;;;17.81;74.63;99837.05;1685922;83;21159;-48
2021/05/02 09:56:52;;;;;;;13.20;9.25;;;;;;;17.82;74.78;99840.11;1736925;81;21164;-45
2021/05/02 09:59:32;;;;;;;10.50;8.55;;;;;;;17.82;74.91;99849.55;1721543;82;21157;-45
2021/05/02 10:02:20;;;;;;;12.65;9.53;;;;;;;17.81;75.06;99853.23;1678962;83;21241;-44
2021/05/02 10:04:56;;;;;;;11.60;9.08;;;;;;;17.80;75.27;99860.14;1753324;80;21561;-47
2021/05/02 10:07:28;;;;;;;12.58;8.70;;;;;;;17.77;75.32;99857.22;1748917;80;21153;-48
2021/05/02 10:09:57;;;;;;;9.93;8.85;;;;;;;17.75;75.52;99861.91;1686029;83;21161;-46
2021/05/02 10:12:24;;;;;;;10.82;9.73;;;;;;;17.72;75.49;99859.01;1745475;80;21153;-45
2021/05/02 10:14:54;;;;;;;12.45;9.28;;;;;;;17.71;75.59;99861.84;1752058;80;21154;-46
2021/05/02 10:17:23;;;;;;;20.40;9.40;;;;;;;17.67;75.75;99864.00;1735888;80;21183;-45
2021/05/02 10:19:51;;;;;;;11.03;8.93;;;;;;;17.65;76.35;99874.08;1741580;80;21342;-45
2021/05/02 10:22:18;;;;;;;14.38;9.25;;;;;;;17.64;76.96;99866.13;1737274;80;21168;-43
2021/05/02 10:24:47;;;;;;;11.85;9.03;;;;;;;17.62;77.35;99863.61;1752535;80;21145;-43
2021/05/02 10:27:15;;;;;;;10.35;9.28;;;;;;;17.60;77.80;99865.59;1750657;80;21169;-42
2021/05/02 10:29:47;;;;;;;14.95;10.45;;;;;;;17.58;78.14;99864.05;1676421;83;21166;-43
2021/05/02 10:32:15;;;;;;;12.85;10.05;;;;;;;17.56;78.61;99868.23;1670050;83;21671;-44
2021/05/02 10:34:43;;;;;;;11.65;8.98;;;;;;;17.54;78.91;99859.47;1672091;84;21645;-43
2021/05/02 10:40:22;;;;;;;11.75;8.65;;;;;;;17.59;79.20;99849.56;1763153;79;22990;-46
2021/05/02 10:42:53;;;;;;;10.82;8.43;;;;;;;17.58;79.42;99853.27;1737120;80;21094;-46
2021/05/02 10:48:27;;;;;;;12.18;8.30;;;;;;;17.70;79.75;99849.37;1810661;78;23464;-44
2021/05/02 10:50:55;;;;;;;13.98;8.50;;;;;;;17.66;79.58;99843.42;1778393;80;21157;-44
2021/05/02 10:53:27;;;;;;;10.18;9.13;;;;;;;17.65;79.43;99840.89;1725882;81;21131;-43
2021/05/02 10:56:01;;;;;;;11.73;8.70;;;;;;;17.66;79.60;99835.33;1719869;81;21287;-42
2021/05/02 10:58:31;;;;;;;13.78;9.18;;;;;;;17.69;79.55;99845.84;1713518;83;21572;-43
2021/05/02 11:01:08;;;;;;;13.03;9.48;;;;;;;17.74;79.46;99844.05;1695994;83;21154;-43
2021/05/02 11:03:42;;;;;;;20.20;10.43;;;;;;;17.76;79.54;99836.62;1684823;84;21566;-43
2021/05/02 11:06:32;;;;;;;13.50;9.18;;;;;;;17.78;79.52;99831.94;1703417;83;21654;-43
2021/05/02 11:09:02;;;;;;;13.38;9.93;;;;;;;17.79;79.49;99826.03;1703529;83;21569;-44
2021/05/02 11:11:35;;;;;;;14.60;10.72;;;;;;;17.81;79.19;99820.87;1702217;83;21449;-42
2021/05/02 11:17:05;;;;;;;18.48;9.50;;;;;;;17.87;79.27;99807.30;1764539;79;23429;-42
2021/05/02 11:19:39;;;;;;;15.25;9.68;;;;;;;17.86;79.39;99801.04;1734839;82;21125;-41
2021/05/02 11:22:08;;;;;;;14.65;10.23;;;;;;;17.89;79.41;99793.14;1735433;80;21138;-39
2021/05/02 11:24:46;;;;;;;13.58;10.63;;;;;;;17.90;79.79;99778.67;1743527;80;21983;-42
2021/05/02 11:30:25;;;;;;;12.82;8.70;;;;;;;17.97;80.72;99778.89;1792297;78;22894;-46
2021/05/02 11:32:55;;;;;;;21.90;8.98;;;;;;;17.94;81.18;99779.56;1779627;79;21613;-45
2021/05/02 11:35:40;;;;;;;;;;;;;;;17.98;81.65;99777.40;1738469;81;21198;-43
2021/05/02 11:38:10;;;;;;;14.83;8.05;;;;;;;17.99;81.74;99768.29;1705054;83;20329;-43
2021/05/02 11:40:38;;;;;;;13.20;7.90;;;;;;;18.00;81.76;99770.52;1727841;81;21183;-44
2021/05/02 11:43:11;;;;;;;12.45;8.25;;;;;;;18.00;81.99;99771.86;1732927;81;21133;-46
2021/05/02 11:45:47;;;;;;;12.18;6.95;;;;;;;18.00;82.06;99771.86;1731640;81;21480;-47
2021/05/02 11:48:24;;;;;;;10.85;7.33;;;;;;;17.99;81.70;99764.75;1725102;81;21608;-45
2021/05/02 11:50:57;;;;;;;10.82;7.90;;;;;;;17.98;81.23;99765.77;1709374;82;21164;-42
2021/05/02 11:53:41;;;;;;;10.03;6.85;;;;;;;17.99;81.19;99772.84;1719054;82;21182;-43
2021/05/02 11:56:23;;;;;;;11.90;7.25;;;;;;;17.99;81.21;99771.50;1710277;82;21643;-42
2021/05/02 11:58:54;;;;;;;9.05;7.90;;;;;;;17.97;80.63;99768.10;1716460;82;21136;-44
2021/05/02 12:01:27;;;;;;;8.53;6.45;;;;;;;17.93;80.02;99772.45;1714796;83;21141;-43
2021/05/02 12:04:06;;;;;;;10.63;6.80;;;;;;;17.89;79.72;99771.09;1699709;82;21160;-45
2021/05/02 12:06:36;;;;;;;9.43;6.03;;;;;;;17.87;79.42;99765.51;1697173;83;21134;-43